createdAt,value
2022-09-13T00:03:30.928Z,98453.78
2022-09-13T00:07:33.252Z,98457.13
2022-09-13T00:11:35.403Z,98450.66
2022-09-13T00:15:43.020Z,98458.25
2022-09-13T00:19:46.232Z,98448.53
2022-09-13T00:23:52.642Z,98458.38
2022-09-13T00:27:56.116Z,98465.81
2022-09-13T00:31:58.773Z,98462.56
2022-09-13T00:36:12.167Z,98469.66
2022-09-13T00:40:16.273Z,98456.81
2022-09-13T00:44:57.773Z,98466.97
2022-09-13T00:49:32.008Z,98462.78
2022-09-13T00:53:38.821Z,98467.16
2022-09-13T00:57:41.560Z,98478.44
2022-09-13T01:01:55.598Z,98479.53
2022-09-13T01:06:07.716Z,98479.13
2022-09-13T01:10:10.682Z,98479.44
2022-09-13T01:14:13.691Z,98487.53
2022-09-13T01:18:17.113Z,98482.69
2022-09-13T01:22:45.237Z,98481.19
2022-09-13T01:26:59.540Z,98488.94
2022-09-13T01:31:10.087Z,98486.41
2022-09-13T01:35:18.653Z,98485.25
2022-09-13T01:39:51.474Z,98477.66
2022-09-13T01:44:15.385Z,98478.44
2022-09-13T01:48:30.385Z,98473.28
2022-09-13T01:52:54.393Z,98474.06
2022-09-13T01:57:20.325Z,98473.28
2022-09-13T02:01:30.592Z,98471.97
2022-09-13T02:05:42.835Z,98471.66
2022-09-13T02:09:50.663Z,98467.22
2022-09-13T02:14:07.457Z,98470.78
2022-09-13T02:18:36.571Z,98462.38
2022-09-13T02:22:44.964Z,98461.25
2022-09-13T02:26:52.958Z,98458.78
2022-09-13T02:30:58.642Z,98473.22
2022-09-13T02:35:06.883Z,98470.25
2022-09-13T02:39:23.915Z,98466.47
2022-09-13T02:43:39.708Z,98473.75
2022-09-13T02:47:45.415Z,98470.56
2022-09-13T02:52:25.347Z,98474.66
2022-09-13T02:56:52.427Z,98476.56
2022-09-13T03:00:55.999Z,98462.06
2022-09-13T03:04:59.589Z,98456.72
2022-09-13T03:09:05.577Z,98467.31
2022-09-13T03:13:45.535Z,98469.69
2022-09-13T03:18:01.519Z,98466.34
2022-09-13T03:22:26.361Z,98462.34
2022-09-13T03:26:28.464Z,98463.47
2022-09-13T03:30:34.481Z,98457.41
2022-09-13T03:34:53.258Z,98454.88
2022-09-13T03:39:30.196Z,98451.94
2022-09-13T03:43:36.153Z,98448.22
2022-09-13T03:47:43.778Z,98455.44
2022-09-13T03:51:51.294Z,98450.09
2022-09-13T03:55:54.844Z,98456.94
2022-09-13T03:59:57.763Z,98453.28
2022-09-13T04:04:00.649Z,98461.38
2022-09-13T04:08:08.165Z,98468.91
2022-09-13T04:12:10.726Z,98466.00
2022-09-13T04:16:12.799Z,98459.56
2022-09-13T04:20:15.034Z,98467.34
2022-09-13T04:24:18.210Z,98468.50
2022-09-13T04:28:21.816Z,98469.84
2022-09-13T04:32:24.127Z,98459.66
2022-09-13T04:36:26.925Z,98462.84
2022-09-13T04:40:29.866Z,98461.78
2022-09-13T04:44:32.568Z,98465.53
2022-09-13T04:48:38.599Z,98462.56
2022-09-13T04:52:44.561Z,98458.28
2022-09-13T04:56:47.827Z,98465.75
2022-09-13T05:00:51.744Z,98470.66
2022-09-13T05:04:57.120Z,98477.66
2022-09-13T05:09:03.332Z,98475.00
2022-09-13T05:13:06.939Z,98469.13
2022-09-13T05:17:10.952Z,98469.09
2022-09-13T05:21:14.949Z,98467.50
2022-09-13T05:25:17.417Z,98468.00
2022-09-13T05:29:20.303Z,98470.66
2022-09-13T05:33:23.096Z,98467.81
2022-09-13T05:37:25.195Z,98470.38
2022-09-13T05:41:28.073Z,98469.22
2022-09-13T05:45:31.480Z,98473.19
2022-09-13T05:49:50.053Z,98471.31
2022-09-13T05:53:59.682Z,98478.91
2022-09-13T05:58:03.481Z,98472.53
2022-09-13T06:02:05.932Z,98472.28
2022-09-13T06:06:09.264Z,98472.28
2022-09-13T06:10:12.764Z,98478.50
2022-09-13T06:14:15.429Z,98472.63
2022-09-13T06:18:18.103Z,98469.72
2022-09-13T06:22:20.827Z,98471.09
2022-09-13T06:26:25.927Z,98477.94
2022-09-13T06:30:28.272Z,98477.19
2022-09-13T06:34:31.463Z,98484.31
2022-09-13T06:38:36.928Z,98487.44
2022-09-13T06:42:41.008Z,98485.16
2022-09-13T06:46:45.315Z,98484.56
2022-09-13T06:50:49.305Z,98483.38
2022-09-13T06:54:55.175Z,98475.44
2022-09-13T06:59:01.408Z,98467.56
2022-09-13T07:03:03.757Z,98458.69
2022-09-13T07:07:06.200Z,98463.88
2022-09-13T07:11:10.048Z,98468.88
2022-09-13T07:15:13.160Z,98459.84
2022-09-13T07:19:20.573Z,98456.78
2022-09-13T07:23:23.208Z,98460.09
2022-09-13T07:27:25.389Z,98465.88
2022-09-13T07:31:30.753Z,98460.25
2022-09-13T07:35:33.427Z,98460.13
2022-09-13T07:39:36.115Z,98469.69
2022-09-13T07:43:38.479Z,98467.75
2022-09-13T07:47:41.326Z,98468.06
2022-09-13T07:51:44.328Z,98470.44
2022-09-13T07:55:46.611Z,98466.88
2022-09-13T07:59:48.773Z,98463.31
2022-09-13T08:03:58.417Z,98462.81
2022-09-13T08:08:00.549Z,98464.59
2022-09-13T08:12:03.305Z,98474.69
2022-09-13T08:16:07.189Z,98474.97
2022-09-13T08:20:10.512Z,98466.44
2022-09-13T08:24:18.859Z,98485.06
2022-09-13T08:28:27.378Z,98486.63
2022-09-13T08:32:30.186Z,98493.22
2022-09-13T08:36:32.225Z,98490.66
2022-09-13T08:40:41.954Z,98491.53
2022-09-13T08:44:54.950Z,98491.81
2022-09-13T08:49:18.795Z,98494.69
2022-09-13T08:53:26.462Z,98491.97
2022-09-13T08:57:41.550Z,98486.47
2022-09-13T09:02:17.787Z,98497.78
2022-09-13T09:06:22.311Z,98498.69
2022-09-13T09:10:45.140Z,98505.78
2022-09-13T09:14:58.359Z,98486.66
2022-09-13T09:19:12.127Z,98487.50
2022-09-13T09:23:27.201Z,98485.59
2022-09-13T09:27:32.777Z,98483.84
2022-09-13T09:31:55.382Z,98477.84
2022-09-13T09:36:11.417Z,98480.00
2022-09-13T09:40:17.557Z,98481.66
2022-09-13T09:44:24.182Z,98469.66
2022-09-13T09:48:31.766Z,98449.25
2022-09-13T09:52:42.964Z,98447.91
2022-09-13T09:56:55.431Z,98450.09
2022-09-13T10:00:59.054Z,98460.78
2022-09-13T10:05:03.222Z,98452.09
2022-09-13T10:09:14.667Z,98446.53
2022-09-13T10:13:21.224Z,98458.91
2022-09-13T10:17:25.903Z,98463.06
2022-09-13T10:21:28.261Z,98459.50
2022-09-13T10:25:31.957Z,98462.72
2022-09-13T10:29:34.529Z,98455.31
2022-09-13T10:33:40.221Z,98458.13
2022-09-13T10:37:44.885Z,98452.13
2022-09-13T10:42:08.097Z,98440.72
2022-09-13T10:46:24.896Z,98441.72
2022-09-13T10:50:31.403Z,98440.44
2022-09-13T10:54:34.262Z,98440.97
2022-09-13T10:58:36.560Z,98434.78
2022-09-13T11:02:50.476Z,98436.59
2022-09-13T11:07:28.267Z,98436.34
2022-09-13T11:11:39.351Z,98436.06
2022-09-13T11:16:01.313Z,98433.53
2022-09-13T11:20:15.536Z,98430.59
2022-09-13T11:24:42.471Z,98434.69
2022-09-13T11:29:05.872Z,98425.72
2022-09-13T11:33:29.130Z,98417.47
2022-09-13T11:38:00.898Z,98410.97
2022-09-13T11:42:12.106Z,98409.38
2022-09-13T11:46:32.024Z,98402.34
2022-09-13T11:50:52.305Z,98414.94
2022-09-13T11:54:55.109Z,98402.25
2022-09-13T11:59:22.164Z,98391.97
2022-09-13T12:03:31.954Z,98391.44
2022-09-13T12:07:55.136Z,98378.41
2022-09-13T12:12:11.254Z,98359.50
2022-09-13T12:16:23.509Z,98354.97
2022-09-13T12:20:42.684Z,98349.72
2022-09-13T12:24:55.141Z,98351.69
2022-09-13T12:29:02.980Z,98335.50
2022-09-13T12:33:06.929Z,98339.13
2022-09-13T12:37:52.579Z,98338.09
2022-09-13T12:42:25.820Z,98336.25
2022-09-13T12:46:48.346Z,98350.78
2022-09-13T12:51:12.075Z,98338.56
2022-09-13T12:55:46.748Z,98342.97
2022-09-13T12:59:49.502Z,98339.59
2022-09-13T13:03:58.721Z,98340.00
2022-09-13T13:08:21.585Z,98328.00
2022-09-13T13:12:39.120Z,98325.31
2022-09-13T13:16:44.328Z,98326.50
2022-09-13T13:20:55.578Z,98326.69
2022-09-13T13:24:57.865Z,98329.31
2022-09-13T13:29:04.030Z,98340.31
2022-09-13T13:33:16.816Z,98335.09
2022-09-13T13:37:18.993Z,98338.00
2022-09-13T13:41:33.741Z,98336.06
2022-09-13T13:45:36.305Z,98330.56
2022-09-13T13:49:41.641Z,98318.13
2022-09-13T13:54:24.188Z,98324.38
2022-09-13T13:59:09.272Z,98313.38
2022-09-13T14:03:27.949Z,98310.81
2022-09-13T14:07:39.676Z,98299.50
2022-09-13T14:12:10.506Z,98292.44
2022-09-13T14:16:37.794Z,98275.56
2022-09-13T14:20:59.341Z,98283.25
2022-09-13T14:25:21.116Z,98284.53
2022-09-13T14:29:26.592Z,98279.13
2022-09-13T14:33:37.686Z,98284.22
2022-09-13T14:37:40.510Z,98293.59
2022-09-13T14:41:43.057Z,98301.28
2022-09-13T14:45:48.739Z,98293.06
2022-09-13T14:49:58.716Z,98281.84
2022-09-13T14:54:17.384Z,98272.94
2022-09-13T14:58:26.771Z,98279.13
2022-09-13T15:02:37.832Z,98275.22
2022-09-13T15:06:41.246Z,98272.94
2022-09-13T15:10:44.745Z,98272.16
2022-09-13T15:14:48.278Z,98265.88
2022-09-13T15:19:27.531Z,98260.41
2022-09-13T15:23:34.033Z,98261.97
2022-09-13T15:27:48.212Z,98241.97
2022-09-13T15:31:50.338Z,98256.06
2022-09-13T15:35:56.643Z,98256.47
2022-09-13T15:40:11.858Z,98251.00
2022-09-13T15:44:14.431Z,98248.66
2022-09-13T15:48:30.409Z,98257.25
2022-09-13T15:52:33.165Z,98254.41
2022-09-13T15:56:40.037Z,98255.22
2022-09-13T16:00:42.665Z,98253.47
2022-09-13T16:04:44.931Z,98256.06
2022-09-13T16:08:48.711Z,98267.63
2022-09-13T16:12:51.721Z,98267.94
2022-09-13T16:16:56.022Z,98273.03
2022-09-13T16:20:58.147Z,98276.38
2022-09-13T16:25:00.287Z,98277.09
2022-09-13T16:29:02.461Z,98276.44
2022-09-13T16:33:04.500Z,98274.03
2022-09-13T16:37:06.662Z,98272.41
2022-09-13T16:41:08.739Z,98280.28
2022-09-13T16:45:11.900Z,98285.06
2022-09-13T16:49:14.041Z,98280.41
2022-09-13T16:53:16.239Z,98274.44
2022-09-13T16:57:18.495Z,98273.31
2022-09-13T17:01:24.330Z,98275.25
2022-09-13T17:05:27.132Z,98275.44
2022-09-13T17:09:31.021Z,98291.38
2022-09-13T17:13:34.354Z,98294.38
2022-09-13T17:17:37.661Z,98304.31
2022-09-13T17:21:40.402Z,98300.88
2022-09-13T17:25:49.287Z,98302.91
2022-09-13T17:29:52.672Z,98297.66
2022-09-13T17:33:55.492Z,98297.44
2022-09-13T17:37:59.741Z,98289.34
2022-09-13T17:42:02.375Z,98289.69
2022-09-13T17:46:12.096Z,98292.91
2022-09-13T17:50:15.134Z,98300.81
2022-09-13T17:54:17.925Z,98304.78
2022-09-13T17:58:20.468Z,98310.44
2022-09-13T18:02:23.004Z,98310.72
2022-09-13T18:06:25.317Z,98314.69
2022-09-13T18:10:53.095Z,98315.75
2022-09-13T18:14:51.399Z,98322.69
2022-09-13T18:18:54.202Z,98331.47
2022-09-13T18:22:56.333Z,98339.34
2022-09-13T18:26:59.635Z,98340.94
2022-09-13T18:31:05.868Z,98337.78
2022-09-13T18:35:10.086Z,98343.75
2022-09-13T18:39:20.337Z,98347.94
2022-09-13T18:43:23.019Z,98354.16
2022-09-13T18:47:25.612Z,98362.16
2022-09-13T18:51:30.598Z,98373.56
2022-09-13T18:55:39.783Z,98376.91
2022-09-13T18:59:42.385Z,98378.84
2022-09-13T19:03:54.059Z,98386.13
2022-09-13T19:08:00.382Z,98385.13
2022-09-13T19:12:05.731Z,98381.63
2022-09-13T19:16:11.834Z,98389.06
2022-09-13T19:20:15.390Z,98395.09
2022-09-13T19:24:19.899Z,98406.13
2022-09-13T19:28:23.191Z,98403.41
2022-09-13T19:32:25.996Z,98407.63
2022-09-13T19:36:34.116Z,98409.63
2022-09-13T19:40:41.153Z,98418.66
2022-09-13T19:48:50.964Z,98435.34
2022-09-13T19:52:53.932Z,98440.47
2022-09-13T19:56:58.903Z,98433.25
2022-09-13T20:01:03.486Z,98444.88
2022-09-13T20:05:06.001Z,98435.94
2022-09-13T20:09:09.589Z,98446.19
2022-09-13T20:13:12.180Z,98459.28
2022-09-13T20:17:14.500Z,98455.34
2022-09-13T20:21:18.401Z,98461.31
2022-09-13T20:25:21.063Z,98455.31
2022-09-13T20:29:25.082Z,98454.53
2022-09-13T20:33:27.675Z,98459.69
2022-09-13T20:37:30.336Z,98452.63
2022-09-13T20:41:34.255Z,98449.31
2022-09-13T20:45:36.394Z,98441.31
2022-09-13T20:49:38.940Z,98437.63
2022-09-13T20:53:42.816Z,98443.63
2022-09-13T20:57:44.962Z,98440.44
2022-09-13T21:01:48.293Z,98439.19
2022-09-13T21:05:50.805Z,98444.59
2022-09-13T21:09:54.087Z,98450.13
2022-09-13T21:13:59.643Z,98453.97
2022-09-13T21:18:02.382Z,98466.38
2022-09-13T21:22:06.494Z,98468.63
2022-09-13T21:26:14.596Z,98473.59
2022-09-13T21:30:17.208Z,98482.00
2022-09-13T21:34:20.030Z,98470.91
2022-09-13T21:38:22.556Z,98460.75
2022-09-13T21:42:25.502Z,98468.75
2022-09-13T21:46:30.940Z,98471.38
2022-09-13T21:50:33.286Z,98473.50
2022-09-13T21:54:35.947Z,98467.19
2022-09-13T21:58:39.493Z,98473.09
2022-09-13T22:02:42.312Z,98479.03
2022-09-13T22:06:47.188Z,98485.22
2022-09-13T22:10:49.553Z,98481.78
2022-09-13T22:14:53.161Z,98478.56
2022-09-13T22:19:05.478Z,98482.25
2022-09-13T22:23:11.524Z,98476.84
2022-09-13T22:27:14.196Z,98472.53
2022-09-13T22:31:20.440Z,98471.13
2022-09-13T22:35:23.247Z,98480.25
2022-09-13T22:39:25.519Z,98473.94
2022-09-13T22:43:28.185Z,98472.69
2022-09-13T22:47:30.488Z,98471.28
2022-09-13T22:51:33.376Z,98466.38
2022-09-13T22:55:35.864Z,98485.00
2022-09-13T22:59:38.311Z,98486.22
2022-09-13T23:03:42.814Z,98480.47
2022-09-13T23:07:45.627Z,98475.09
2022-09-13T23:11:48.805Z,98471.13
2022-09-13T23:15:51.490Z,98470.81
2022-09-13T23:19:54.219Z,98478.94
2022-09-13T23:23:56.959Z,98481.50
2022-09-13T23:28:00.195Z,98476.91
2022-09-13T23:32:04.126Z,98487.72
2022-09-13T23:36:06.904Z,98504.41
2022-09-13T23:40:10.228Z,98506.00
2022-09-13T23:44:13.074Z,98494.53
2022-09-13T23:48:15.404Z,98501.41
2022-09-13T23:52:17.913Z,98500.75
2022-09-13T23:56:20.500Z,98494.09
